createdAt,value
2023-02-11T00:00:42.420Z,55.37
2023-02-11T00:03:44.536Z,49.70
2023-02-11T00:06:46.618Z,50.28
2023-02-11T00:09:48.650Z,51.13
2023-02-11T00:12:50.701Z,47.60
2023-02-11T00:15:52.977Z,56.28
2023-02-11T00:18:55.145Z,48.42
2023-02-11T00:21:57.160Z,46.10
2023-02-11T00:24:59.173Z,47.80
2023-02-11T00:28:01.190Z,59.33
2023-02-11T00:31:03.342Z,60.20
2023-02-11T00:34:05.475Z,55.08
2023-02-11T00:37:07.691Z,52.22
2023-02-11T00:40:10.066Z,54.13
2023-02-11T00:43:12.101Z,50.65
2023-02-11T00:46:14.569Z,58.05
2023-02-11T00:49:16.633Z,57.00
2023-02-11T00:52:18.661Z,56.43
2023-02-11T00:55:20.724Z,52.63
2023-02-11T00:58:22.948Z,59.50
2023-02-11T01:01:25.125Z,60.17
2023-02-11T01:04:27.234Z,61.58
2023-02-11T01:07:29.538Z,50.72
2023-02-11T01:10:32.000Z,51.10
2023-02-11T01:13:35.386Z,50.42
2023-02-11T01:16:37.436Z,51.40
2023-02-11T01:19:39.532Z,44.03
2023-02-11T01:22:42.070Z,60.10
2023-02-11T01:25:44.191Z,49.83
2023-02-11T01:28:46.242Z,49.47
2023-02-11T01:31:48.465Z,59.67
2023-02-11T01:34:50.496Z,52.63
2023-02-11T01:37:52.570Z,48.83
2023-02-11T01:40:55.992Z,60.85
2023-02-11T01:43:58.173Z,58.83
2023-02-11T01:47:00.592Z,52.53
2023-02-11T01:50:02.660Z,50.75
2023-02-11T01:53:24.669Z,53.50
2023-02-11T01:56:46.183Z,54.67
2023-02-11T01:59:48.189Z,51.15
2023-02-11T02:03:03.102Z,51.23
2023-02-11T02:06:12.596Z,53.22
2023-02-11T02:09:34.859Z,53.88
2023-02-11T02:12:38.980Z,53.17
2023-02-11T02:15:52.342Z,62.10
2023-02-11T02:19:01.566Z,57.35
2023-02-11T02:22:32.975Z,68.63
2023-02-11T02:25:50.320Z,49.37
2023-02-11T02:29:04.835Z,69.78
2023-02-11T02:32:25.128Z,46.05
2023-02-11T02:35:29.836Z,64.93
2023-02-11T02:38:34.687Z,61.95
2023-02-11T02:41:37.826Z,46.83
2023-02-11T02:44:40.010Z,60.08
2023-02-11T02:47:42.034Z,67.60
2023-02-11T02:50:44.238Z,56.05
2023-02-11T02:54:04.870Z,55.83
2023-02-11T02:57:09.425Z,56.97
2023-02-11T03:00:14.484Z,52.33
2023-02-11T03:03:34.931Z,59.58
2023-02-11T03:06:55.430Z,59.87
2023-02-11T03:10:06.544Z,43.10
2023-02-11T03:13:08.750Z,41.28
2023-02-11T03:16:28.896Z,54.35
2023-02-11T03:19:34.519Z,44.88
2023-02-11T03:22:55.770Z,50.65
2023-02-11T03:26:16.441Z,57.88
2023-02-11T03:29:18.433Z,23.30
2023-02-11T03:32:25.135Z,55.92
2023-02-11T03:35:37.292Z,54.53
2023-02-11T03:38:42.819Z,55.23
2023-02-11T03:41:45.674Z,60.45
2023-02-11T03:44:53.920Z,39.35
2023-02-11T03:47:59.016Z,59.47
2023-02-11T03:51:02.742Z,55.75
2023-02-11T03:54:07.402Z,51.60
2023-02-11T03:57:09.451Z,42.47
2023-02-11T04:00:12.130Z,49.00
2023-02-11T04:03:14.293Z,57.35
2023-02-11T04:06:16.355Z,57.03
2023-02-11T04:09:18.419Z,52.13
2023-02-11T04:12:20.613Z,49.78
2023-02-11T04:15:22.560Z,48.83
2023-02-11T04:18:24.593Z,51.60
2023-02-11T04:21:26.602Z,55.50
2023-02-11T04:24:28.658Z,49.72
2023-02-11T04:27:30.687Z,59.33
2023-02-11T04:30:32.664Z,42.97
2023-02-11T04:33:34.708Z,56.97
2023-02-11T04:36:36.661Z,51.25
2023-02-11T04:39:38.735Z,49.97
2023-02-11T04:42:40.794Z,48.28
2023-02-11T04:45:42.834Z,50.88
2023-02-11T04:48:44.972Z,52.88
2023-02-11T04:51:49.278Z,57.55
2023-02-11T04:54:51.674Z,39.55
2023-02-11T04:57:53.767Z,62.45
2023-02-11T05:00:55.816Z,59.37
2023-02-11T05:03:57.973Z,56.25
2023-02-11T05:06:59.986Z,51.90
2023-02-11T05:10:02.000Z,51.97
2023-02-11T05:13:04.094Z,51.47
2023-02-11T05:16:06.211Z,42.88
2023-02-11T05:19:08.401Z,58.88
2023-02-11T05:22:10.407Z,54.28
2023-02-11T05:25:12.410Z,49.22
2023-02-11T05:28:14.543Z,57.38
2023-02-11T05:31:16.959Z,53.80
2023-02-11T05:34:18.997Z,48.05
2023-02-11T05:37:21.134Z,50.30
2023-02-11T05:40:23.189Z,56.67
2023-02-11T05:43:25.179Z,48.88
2023-02-11T05:46:27.334Z,57.30
2023-02-11T05:49:29.354Z,71.15
2023-02-11T05:52:31.526Z,65.90
2023-02-11T05:55:33.750Z,57.42
2023-02-11T05:58:36.020Z,54.65
2023-02-11T06:01:38.072Z,33.57
2023-02-11T06:04:40.189Z,51.63
2023-02-11T06:07:42.506Z,57.40
2023-02-11T06:10:45.177Z,54.57
2023-02-11T06:13:47.157Z,62.80
2023-02-11T06:16:49.151Z,61.42
2023-02-11T06:19:51.420Z,58.80
2023-02-11T06:22:53.359Z,71.75
2023-02-11T06:25:55.374Z,30.95
2023-02-11T06:28:59.673Z,47.63
2023-02-11T06:32:01.795Z,43.03
2023-02-11T06:35:03.931Z,52.83
2023-02-11T06:38:05.941Z,49.65
2023-02-11T06:41:09.640Z,27.27
2023-02-11T06:44:11.634Z,26.70
2023-02-11T06:47:13.650Z,44.97
2023-02-11T06:50:15.812Z,54.15
2023-02-11T06:53:17.844Z,45.92
2023-02-11T06:56:21.341Z,42.88
2023-02-11T06:59:23.331Z,43.15
2023-02-11T07:02:25.430Z,53.93
2023-02-11T07:05:27.666Z,49.03
2023-02-11T07:08:29.751Z,40.63
2023-02-11T07:11:32.159Z,38.83
2023-02-11T07:14:34.178Z,42.45
2023-02-11T07:17:36.311Z,50.97
2023-02-11T07:20:47.778Z,45.78
2023-02-11T07:23:50.503Z,44.30
2023-02-11T07:26:53.263Z,34.42
2023-02-11T07:29:55.272Z,40.63
2023-02-11T07:32:57.344Z,45.67
2023-02-11T07:36:02.327Z,50.00
2023-02-11T07:39:04.482Z,39.22
2023-02-11T07:42:06.683Z,43.30
2023-02-11T07:45:09.083Z,48.70
2023-02-11T07:48:11.239Z,47.80
2023-02-11T07:51:17.531Z,40.95
2023-02-11T07:54:19.531Z,46.90
2023-02-11T07:57:21.571Z,46.00
2023-02-11T08:00:23.626Z,36.78
2023-02-11T08:03:25.688Z,33.47
2023-02-11T08:06:29.440Z,47.65
2023-02-11T08:09:34.184Z,48.33
2023-02-11T08:12:36.594Z,39.13
2023-02-11T08:15:38.642Z,46.55
2023-02-11T08:18:40.663Z,44.42
2023-02-11T08:21:43.326Z,41.60
2023-02-11T08:24:45.329Z,31.63
2023-02-11T08:27:47.409Z,36.25
2023-02-11T08:30:49.758Z,39.20
2023-02-11T08:33:53.394Z,42.50
2023-02-11T08:36:55.425Z,46.17
2023-02-11T08:39:57.478Z,44.30
2023-02-11T08:42:59.534Z,45.50
2023-02-11T08:46:02.511Z,34.42
2023-02-11T08:49:04.767Z,45.83
2023-02-11T08:52:06.833Z,40.30
2023-02-11T08:55:08.901Z,44.85
2023-02-11T08:58:10.942Z,39.97
2023-02-11T09:01:14.300Z,47.30
2023-02-11T09:04:16.506Z,43.70
2023-02-11T09:07:18.540Z,47.03
2023-02-11T09:10:20.493Z,47.45
2023-02-11T09:13:22.503Z,47.37
2023-02-11T09:16:26.338Z,47.67
2023-02-11T09:19:28.537Z,54.30
2023-02-11T09:22:30.524Z,51.30
2023-02-11T09:25:32.682Z,42.50
2023-02-11T09:28:34.729Z,41.90
2023-02-11T09:31:36.851Z,44.25
2023-02-11T09:34:38.999Z,44.80
2023-02-11T09:37:41.075Z,40.00
2023-02-11T09:40:44.343Z,43.10
2023-02-11T09:43:48.641Z,39.10
2023-02-11T09:47:13.920Z,40.00
2023-02-11T09:50:18.667Z,43.47
2023-02-11T09:53:24.935Z,42.75
2023-02-11T09:56:27.829Z,45.85
2023-02-11T09:59:29.830Z,41.22
2023-02-11T10:03:04.306Z,44.65
2023-02-11T10:06:24.861Z,44.80
2023-02-11T10:09:32.220Z,36.45
2023-02-11T10:12:49.541Z,39.03
2023-02-11T10:16:00.763Z,40.03
2023-02-11T10:19:11.298Z,35.90
2023-02-11T10:22:30.894Z,52.42
2023-02-11T10:25:40.448Z,40.92
2023-02-11T10:28:44.519Z,38.70
2023-02-11T10:31:47.363Z,39.28
2023-02-11T10:34:49.532Z,41.13
2023-02-11T10:37:51.604Z,46.57
2023-02-11T10:40:53.656Z,41.55
2023-02-11T10:43:55.686Z,43.92
2023-02-11T10:46:59.210Z,43.45
2023-02-11T10:50:03.784Z,46.93
2023-02-11T10:53:13.314Z,46.08
2023-02-11T10:56:26.665Z,39.78
2023-02-11T10:59:33.272Z,41.33
2023-02-11T11:02:36.901Z,40.77
2023-02-11T11:05:46.781Z,45.53
2023-02-11T11:08:50.347Z,41.20
2023-02-11T11:11:53.825Z,47.75
2023-02-11T11:14:56.544Z,44.85
2023-02-11T11:18:21.464Z,40.38
2023-02-11T11:21:26.479Z,39.97
2023-02-11T11:24:40.565Z,37.57
2023-02-11T11:27:48.390Z,40.25
2023-02-11T11:30:52.631Z,43.67
2023-02-11T11:33:56.506Z,40.58
2023-02-11T11:36:59.497Z,42.17
2023-02-11T11:40:09.199Z,35.05
2023-02-11T11:43:14.229Z,39.30
2023-02-11T11:46:22.860Z,34.97
2023-02-11T11:49:33.558Z,32.33
2023-02-11T11:52:39.782Z,36.55
2023-02-11T11:55:50.056Z,39.75
2023-02-11T11:58:53.183Z,35.87
2023-02-11T12:02:05.731Z,35.20
2023-02-11T12:05:14.083Z,31.23
2023-02-11T12:08:16.065Z,33.03
2023-02-11T12:11:26.188Z,32.77
2023-02-11T12:14:28.190Z,31.63
2023-02-11T12:17:33.023Z,30.38
2023-02-11T12:20:44.061Z,33.63
2023-02-11T12:24:02.645Z,33.40
2023-02-11T12:27:05.148Z,26.10
2023-02-11T12:30:25.285Z,28.67
2023-02-11T12:33:33.360Z,29.38
2023-02-11T12:36:41.131Z,26.00
2023-02-11T12:39:46.091Z,28.30
2023-02-11T12:43:09.919Z,32.28
2023-02-11T12:46:30.387Z,28.73
2023-02-11T12:49:41.604Z,27.40
2023-02-11T12:52:55.531Z,31.57
2023-02-11T12:56:04.013Z,29.90
2023-02-11T12:59:13.105Z,29.25
2023-02-11T13:02:23.271Z,29.88
2023-02-11T13:05:38.341Z,29.55
2023-02-11T13:08:48.584Z,28.83
2023-02-11T13:11:53.549Z,29.57
2023-02-11T13:14:58.137Z,30.25
2023-02-11T13:18:17.397Z,29.90
2023-02-11T13:21:23.778Z,29.20
2023-02-11T13:24:29.209Z,36.83
2023-02-11T13:27:31.260Z,31.10
2023-02-11T13:30:39.630Z,33.58
2023-02-11T13:33:45.930Z,34.15
2023-02-11T13:36:54.167Z,29.67
2023-02-11T13:39:59.024Z,29.77
2023-02-11T13:43:02.515Z,33.63
2023-02-11T13:46:06.229Z,26.95
2023-02-11T13:49:18.066Z,28.38
2023-02-11T13:52:29.585Z,30.60
2023-02-11T13:55:32.474Z,31.67
2023-02-11T13:58:37.260Z,31.37
2023-02-11T14:01:39.319Z,39.30
2023-02-11T14:05:18.814Z,34.05
2023-02-11T14:08:40.850Z,31.55
2023-02-11T14:11:55.407Z,33.77
2023-02-11T14:15:01.163Z,30.08
2023-02-11T14:18:24.261Z,32.25
2023-02-11T14:21:27.432Z,31.50
2023-02-11T14:24:31.017Z,32.83
2023-02-11T14:27:55.414Z,32.97
2023-02-11T14:31:06.376Z,34.28
2023-02-11T14:34:08.482Z,28.67
2023-02-11T14:37:16.100Z,31.87
2023-02-11T14:40:30.157Z,32.20
2023-02-11T14:43:36.972Z,29.80
2023-02-11T14:46:42.147Z,36.70
2023-02-11T14:49:44.837Z,37.47
2023-02-11T14:52:47.301Z,35.60
2023-02-11T14:55:53.165Z,32.90
2023-02-11T14:58:55.458Z,35.13
2023-02-11T15:01:58.723Z,37.35
2023-02-11T15:05:19.470Z,33.05
2023-02-11T15:08:21.487Z,31.25
2023-02-11T15:11:24.546Z,35.80
2023-02-11T15:14:26.520Z,40.17
2023-02-11T15:17:31.123Z,33.20
2023-02-11T15:20:33.693Z,34.67
2023-02-11T15:23:36.508Z,39.05
2023-02-11T15:26:38.470Z,42.08
2023-02-11T15:29:41.767Z,34.23
2023-02-11T15:32:45.098Z,31.50
2023-02-11T15:35:47.146Z,31.52
2023-02-11T15:39:09.518Z,33.17
2023-02-11T15:42:20.629Z,37.08
2023-02-11T15:45:28.867Z,36.70
2023-02-11T15:48:35.333Z,39.30
2023-02-11T15:51:38.814Z,39.13
2023-02-11T15:54:45.793Z,36.40
2023-02-11T15:57:56.091Z,37.05
2023-02-11T16:01:00.069Z,40.73
2023-02-11T16:04:02.811Z,35.25
2023-02-11T16:07:05.347Z,38.20
2023-02-11T16:10:27.911Z,42.92
2023-02-11T16:13:33.665Z,40.08
2023-02-11T16:16:35.990Z,40.67
2023-02-11T16:19:43.849Z,41.33
2023-02-11T16:22:46.262Z,43.30
2023-02-11T16:25:48.361Z,39.10
2023-02-11T16:28:50.755Z,37.00
2023-02-11T16:31:53.595Z,38.30
2023-02-11T16:34:58.056Z,36.65
2023-02-11T16:38:00.255Z,36.65
2023-02-11T16:41:02.258Z,39.97
2023-02-11T16:44:04.353Z,37.47
2023-02-11T16:47:07.949Z,45.25
2023-02-11T16:50:11.330Z,41.60
2023-02-11T16:53:16.340Z,39.17
2023-02-11T16:56:18.516Z,44.55
2023-02-11T16:59:20.867Z,41.45
2023-02-11T17:02:25.304Z,48.23
2023-02-11T17:05:27.587Z,42.10
2023-02-11T17:08:30.050Z,42.20
2023-02-11T17:11:32.040Z,38.95
2023-02-11T17:14:34.095Z,37.92
2023-02-11T17:17:36.137Z,44.67
2023-02-11T17:20:38.100Z,39.03
2023-02-11T17:23:40.084Z,40.97
2023-02-11T17:26:42.433Z,39.92
2023-02-11T17:29:44.504Z,43.15
2023-02-11T17:32:47.396Z,41.77
2023-02-11T17:35:49.697Z,51.35
2023-02-11T17:38:52.208Z,52.63
2023-02-11T17:41:54.235Z,45.90
2023-02-11T17:44:56.260Z,48.75
2023-02-11T17:47:58.319Z,46.85
2023-02-11T17:51:00.323Z,49.83
2023-02-11T17:54:03.494Z,42.63
2023-02-11T17:57:05.523Z,41.58
2023-02-11T18:00:08.034Z,41.38
2023-02-11T18:03:14.721Z,37.03
2023-02-11T18:06:16.775Z,37.83
2023-02-11T18:09:18.860Z,38.85
2023-02-11T18:12:25.278Z,38.05
2023-02-11T18:15:27.488Z,37.72
2023-02-11T18:18:29.572Z,41.67
2023-02-11T18:21:31.634Z,36.92
2023-02-11T18:24:33.627Z,28.13
2023-02-11T18:27:35.689Z,45.42
2023-02-11T18:30:37.783Z,42.80
2023-02-11T18:33:40.595Z,37.30
2023-02-11T18:36:42.703Z,39.35
2023-02-11T18:39:44.728Z,49.35
2023-02-11T18:42:46.872Z,40.13
2023-02-11T18:45:49.486Z,39.15
2023-02-11T18:48:55.592Z,36.05
2023-02-11T18:52:00.737Z,30.15
2023-02-11T18:55:03.513Z,44.23
2023-02-11T18:58:05.833Z,36.63
2023-02-11T19:01:12.447Z,35.70
2023-02-11T19:04:19.918Z,38.77
2023-02-11T19:07:22.142Z,44.25
2023-02-11T19:10:24.343Z,38.17
2023-02-11T19:13:28.220Z,37.78
2023-02-11T19:16:30.419Z,39.33
2023-02-11T19:19:33.670Z,39.08
2023-02-11T19:22:35.701Z,46.97
2023-02-11T19:25:37.852Z,53.73
2023-02-11T19:28:39.902Z,40.50
2023-02-11T19:31:42.207Z,45.95
2023-02-11T19:34:44.273Z,41.70
2023-02-11T19:37:46.286Z,40.25
2023-02-11T19:40:55.105Z,38.10
2023-02-11T19:43:57.139Z,42.20
2023-02-11T19:47:00.032Z,44.30
2023-02-11T19:50:02.182Z,45.13
2023-02-11T19:53:04.313Z,47.28
2023-02-11T19:56:07.790Z,37.43
2023-02-11T19:59:09.929Z,42.63
2023-02-11T20:02:12.945Z,42.75
2023-02-11T20:05:15.054Z,45.70
2023-02-11T20:08:17.180Z,44.50
2023-02-11T20:11:19.733Z,43.50
2023-02-11T20:14:21.750Z,40.35
2023-02-11T20:17:23.847Z,46.55
2023-02-11T20:20:25.851Z,41.28
2023-02-11T20:23:29.540Z,38.40
2023-02-11T20:26:33.099Z,33.40
2023-02-11T20:29:35.118Z,37.53
2023-02-11T20:32:38.625Z,33.25
2023-02-11T20:35:40.616Z,38.93
2023-02-11T20:38:42.930Z,33.70
2023-02-11T20:41:46.262Z,37.13
2023-02-11T20:44:48.514Z,44.10
2023-02-11T20:47:50.533Z,42.13
2023-02-11T20:50:52.549Z,40.42
2023-02-11T20:53:54.801Z,41.03
2023-02-11T20:56:58.228Z,46.57
2023-02-11T21:00:00.340Z,45.25
2023-02-11T21:03:02.615Z,40.78
2023-02-11T21:06:04.699Z,37.70
2023-02-11T21:09:07.478Z,40.92
2023-02-11T21:12:09.570Z,34.65
2023-02-11T21:15:12.764Z,41.17
2023-02-11T21:18:14.790Z,44.40
2023-02-11T21:21:17.449Z,42.78
2023-02-11T21:24:19.506Z,49.42
2023-02-11T21:27:21.535Z,45.17
2023-02-11T21:30:23.574Z,42.97
2023-02-11T21:33:26.381Z,41.03
2023-02-11T21:36:28.986Z,44.00
2023-02-11T21:39:31.030Z,38.08
2023-02-11T21:42:33.008Z,39.05
2023-02-11T21:45:34.988Z,36.72
2023-02-11T21:48:37.263Z,41.53
2023-02-11T21:51:39.570Z,43.78
2023-02-11T21:54:41.553Z,39.53
2023-02-11T21:57:43.575Z,37.77
2023-02-11T22:00:46.861Z,38.08
2023-02-11T22:03:48.933Z,32.40
2023-02-11T22:06:50.923Z,35.47
2023-02-11T22:09:54.818Z,35.05
2023-02-11T22:12:56.803Z,38.13
2023-02-11T22:16:03.403Z,43.83
2023-02-11T22:19:07.554Z,40.83
2023-02-11T22:22:09.714Z,43.45
2023-02-11T22:25:11.777Z,38.33
2023-02-11T22:28:13.880Z,30.53
2023-02-11T22:31:18.568Z,37.25
2023-02-11T22:34:20.814Z,41.17
2023-02-11T22:37:22.864Z,39.43
2023-02-11T22:40:25.129Z,33.45
2023-02-11T22:43:28.021Z,39.65
2023-02-11T22:46:30.226Z,39.13
2023-02-11T22:49:35.691Z,43.38
2023-02-11T22:52:37.796Z,37.33
2023-02-11T22:55:39.842Z,37.17
2023-02-11T22:58:41.919Z,35.53
2023-02-11T23:01:44.120Z,35.08
2023-02-11T23:04:47.837Z,36.10
2023-02-11T23:07:51.759Z,32.33
2023-02-11T23:10:53.806Z,39.72
2023-02-11T23:13:55.899Z,35.67
2023-02-11T23:16:57.962Z,37.42
2023-02-11T23:20:00.115Z,33.15
2023-02-11T23:23:02.672Z,38.25
2023-02-11T23:26:05.254Z,46.60
2023-02-11T23:29:07.809Z,36.03
2023-02-11T23:32:09.829Z,46.03
2023-02-11T23:35:13.070Z,36.88
2023-02-11T23:38:15.108Z,40.80
2023-02-11T23:41:17.380Z,37.58
2023-02-11T23:44:19.391Z,36.33
2023-02-11T23:47:21.430Z,36.03
2023-02-11T23:50:23.405Z,39.88
2023-02-11T23:53:25.409Z,45.25
2023-02-11T23:56:28.314Z,42.72
2023-02-11T23:59:30.317Z,45.87
